createdAt,value
2023-04-27T00:00:09.497Z,99497.31
2023-04-27T00:02:38.414Z,99502.25
2023-04-27T00:05:11.741Z,99497.56
2023-04-27T00:07:40.288Z,99497.31
2023-04-27T00:10:11.151Z,99496.47
2023-04-27T00:12:39.650Z,99497.31
2023-04-27T00:15:10.076Z,99499.22
2023-04-27T00:17:38.600Z,99490.66
2023-04-27T00:20:11.908Z,99494.81
2023-04-27T00:22:40.474Z,99494.53
2023-04-27T00:25:10.024Z,99486.81
2023-04-27T00:27:38.433Z,99486.53
2023-04-27T00:30:08.689Z,99486.25
2023-04-27T00:32:37.182Z,99484.34
2023-04-27T00:35:10.111Z,99492.59
2023-04-27T00:37:38.526Z,99487.38
2023-04-27T00:40:09.110Z,99488.47
2023-04-27T00:42:37.833Z,99477.72
2023-04-27T00:45:07.684Z,99479.66
2023-04-27T00:47:36.690Z,99473.59
2023-04-27T00:50:08.815Z,99472.75
2023-04-27T00:52:38.033Z,99475.78
2023-04-27T00:55:08.430Z,99487.06
2023-04-27T00:57:37.330Z,99469.19
2023-04-27T01:00:07.981Z,99478.00
2023-04-27T01:02:37.270Z,99473.88
2023-04-27T01:05:08.726Z,99471.91
2023-04-27T01:07:39.403Z,99470.25
2023-04-27T01:10:09.689Z,99479.88
2023-04-27T01:12:38.287Z,99475.19
2023-04-27T01:15:09.366Z,99476.56
2023-04-27T01:17:37.786Z,99479.63
2023-04-27T01:20:10.508Z,99479.34
2023-04-27T01:22:39.746Z,99475.47
2023-04-27T01:25:11.123Z,99471.63
2023-04-27T01:27:39.428Z,99477.41
2023-04-27T01:30:09.486Z,99482.91
2023-04-27T01:32:39.180Z,99484.28
2023-04-27T01:35:08.624Z,99483.97
2023-04-27T01:37:37.058Z,99487.31
2023-04-27T01:40:07.537Z,99487.56
2023-04-27T01:42:37.311Z,99483.97
2023-04-27T01:45:07.184Z,99488.63
2023-04-27T01:47:35.583Z,99482.28
2023-04-27T01:50:04.346Z,99489.44
2023-04-27T01:52:32.715Z,99488.59
2023-04-27T01:55:01.033Z,99486.66
2023-04-27T01:57:29.336Z,99487.19
2023-04-27T01:59:58.996Z,99493.50
2023-04-27T02:02:27.827Z,99491.03
2023-04-27T02:04:56.329Z,99493.22
2023-04-27T02:07:24.971Z,99488.81
2023-04-27T02:09:53.303Z,99483.88
2023-04-27T02:12:21.634Z,99494.28
2023-04-27T02:14:49.937Z,99494.00
2023-04-27T02:17:19.643Z,99495.66
2023-04-27T02:19:47.972Z,99497.03
2023-04-27T02:22:16.335Z,99493.16
2023-04-27T02:24:44.655Z,99500.25
2023-04-27T02:27:13.084Z,99501.06
2023-04-27T02:29:41.910Z,99498.28
2023-04-27T02:32:10.608Z,99504.59
2023-04-27T02:34:40.615Z,99495.47
2023-04-27T02:37:08.960Z,99498.19
2023-04-27T02:39:37.287Z,99492.94
2023-04-27T02:42:05.922Z,99490.13
2023-04-27T02:44:34.239Z,99503.00
2023-04-27T02:47:02.679Z,99504.66
2023-04-27T02:49:31.992Z,99500.78
2023-04-27T02:52:01.695Z,99503.22
2023-04-27T02:54:30.105Z,99508.41
2023-04-27T02:56:58.463Z,99516.09
2023-04-27T02:59:26.847Z,99502.88
2023-04-27T03:01:55.494Z,99506.75
2023-04-27T03:04:23.959Z,99504.22
2023-04-27T03:06:52.449Z,99511.91
2023-04-27T03:09:22.165Z,99517.97
2023-04-27T03:11:50.713Z,99517.16
2023-04-27T03:14:19.399Z,99515.00
2023-04-27T03:16:48.015Z,99514.72
2023-04-27T03:19:16.764Z,99510.88
2023-04-27T03:21:45.101Z,99503.44
2023-04-27T03:24:13.403Z,99514.44
2023-04-27T03:26:43.346Z,99521.88
2023-04-27T03:29:11.847Z,99522.97
2023-04-27T03:31:40.591Z,99515.00
2023-04-27T03:34:08.930Z,99523.47
2023-04-27T03:36:37.194Z,99523.47
2023-04-27T03:39:05.666Z,99519.59
2023-04-27T03:41:34.149Z,99527.56
2023-04-27T03:44:04.258Z,99527.81
2023-04-27T03:46:32.804Z,99524.50
2023-04-27T03:49:01.453Z,99529.41
2023-04-27T03:51:32.141Z,99531.59
2023-04-27T03:54:00.917Z,99538.19
2023-04-27T03:56:29.251Z,99529.13
2023-04-27T03:58:57.581Z,99542.88
2023-04-27T04:01:27.674Z,99536.78
2023-04-27T04:03:56.655Z,99539.28
2023-04-27T04:06:25.104Z,99539.28
2023-04-27T04:08:53.436Z,99539.28
2023-04-27T04:11:22.563Z,99542.31
2023-04-27T04:13:51.175Z,99542.66
2023-04-27T04:16:19.600Z,99547.34
2023-04-27T04:18:49.802Z,99541.06
2023-04-27T04:21:18.096Z,99534.00
2023-04-27T04:23:46.486Z,99537.34
2023-04-27T04:26:15.036Z,99539.88
2023-04-27T04:28:44.211Z,99534.69
2023-04-27T04:31:13.578Z,99539.44
2023-04-27T04:33:41.984Z,99548.34
2023-04-27T04:36:12.097Z,99549.53
2023-04-27T04:38:40.750Z,99545.22
2023-04-27T04:41:10.197Z,99548.03
2023-04-27T04:43:38.607Z,99550.81
2023-04-27T04:46:08.050Z,99551.13
2023-04-27T04:48:37.945Z,99546.78
2023-04-27T04:51:07.441Z,99546.00
2023-04-27T04:53:38.095Z,99543.25
2023-04-27T04:56:14.167Z,99541.13
2023-04-27T04:58:42.578Z,99546.06
2023-04-27T05:01:11.750Z,99546.91
2023-04-27T05:03:40.821Z,99546.06
2023-04-27T05:06:09.568Z,99552.13
2023-04-27T05:08:39.338Z,99551.00
2023-04-27T05:11:09.184Z,99553.44
2023-04-27T05:13:38.431Z,99553.16
2023-04-27T05:16:07.400Z,99552.59
2023-04-27T05:18:36.354Z,99549.25
2023-04-27T05:21:05.487Z,99551.72
2023-04-27T05:23:33.855Z,99552.25
2023-04-27T05:26:11.941Z,99555.84
2023-04-27T05:28:40.427Z,99565.22
2023-04-27T05:31:09.014Z,99556.69
2023-04-27T05:33:37.722Z,99561.13
2023-04-27T05:36:06.942Z,99563.06
2023-04-27T05:38:36.231Z,99556.16
2023-04-27T05:41:06.059Z,99564.19
2023-04-27T05:43:35.127Z,99563.34
2023-04-27T05:46:03.600Z,99569.41
2023-04-27T05:48:32.104Z,99568.31
2023-04-27T05:51:04.565Z,99573.50
2023-04-27T05:53:35.754Z,99576.78
2023-04-27T05:56:06.875Z,99578.59
2023-04-27T05:58:35.551Z,99576.31
2023-04-27T06:01:04.434Z,99580.94
2023-04-27T06:03:33.249Z,99581.88
2023-04-27T06:06:03.314Z,99578.47
2023-04-27T06:08:31.867Z,99582.19
2023-04-27T06:11:00.225Z,99582.59
2023-04-27T06:13:29.978Z,99587.41
2023-04-27T06:15:58.447Z,99583.09
2023-04-27T06:18:26.780Z,99583.00
2023-04-27T06:20:59.453Z,99582.13
2023-04-27T06:23:27.881Z,99580.09
2023-04-27T06:25:56.298Z,99596.09
2023-04-27T06:28:24.691Z,99593.78
2023-04-27T06:30:55.573Z,99590.06
2023-04-27T06:33:23.863Z,99591.28
2023-04-27T06:35:52.294Z,99589.22
2023-04-27T06:38:20.664Z,99598.53
2023-04-27T06:40:53.463Z,99590.66
2023-04-27T06:43:21.917Z,99590.94
2023-04-27T06:45:50.462Z,99595.13
2023-04-27T06:48:20.420Z,99598.66
2023-04-27T06:50:49.061Z,99603.25
2023-04-27T06:53:18.133Z,99591.97
2023-04-27T06:55:48.416Z,99596.00
2023-04-27T06:58:17.153Z,99595.94
2023-04-27T07:00:45.713Z,99600.78
2023-04-27T07:03:14.814Z,99583.47
2023-04-27T07:05:45.140Z,99591.72
2023-04-27T07:08:14.511Z,99587.66
2023-04-27T07:10:43.253Z,99587.38
2023-04-27T07:13:12.603Z,99575.50
2023-04-27T07:15:42.647Z,99573.47
2023-04-27T07:18:12.213Z,99566.81
2023-04-27T07:20:41.892Z,99569.28
2023-04-27T07:23:11.634Z,99563.94
2023-04-27T07:25:40.504Z,99570.72
2023-04-27T07:28:09.072Z,99571.44
2023-04-27T07:30:37.579Z,99571.44
2023-04-27T07:33:06.193Z,99567.94
2023-04-27T07:35:34.829Z,99571.25
2023-04-27T07:38:03.870Z,99568.47
2023-04-27T07:43:03.081Z,99572.84
2023-04-27T07:45:33.117Z,99573.16
2023-04-27T07:48:02.997Z,99568.06
2023-04-27T07:50:32.118Z,99568.56
2023-04-27T07:53:01.107Z,99572.91
2023-04-27T07:55:29.888Z,99569.06
2023-04-27T07:57:59.730Z,99568.94
2023-04-27T08:00:28.375Z,99569.63
2023-04-27T08:02:57.437Z,99576.59
2023-04-27T08:05:26.556Z,99579.91
2023-04-27T08:07:55.183Z,99584.88
2023-04-27T08:10:24.394Z,99583.69
2023-04-27T08:12:52.943Z,99576.81
2023-04-27T08:15:23.118Z,99579.09
2023-04-27T08:17:51.570Z,99579.25
2023-04-27T08:20:20.516Z,99568.50
2023-04-27T08:22:48.929Z,99589.28
2023-04-27T08:25:17.359Z,99580.34
2023-04-27T08:27:45.832Z,99584.63
2023-04-27T08:30:15.223Z,99589.78
2023-04-27T08:32:45.087Z,99583.28
2023-04-27T08:35:14.882Z,99576.63
2023-04-27T08:37:44.302Z,99576.16
2023-04-27T08:40:13.992Z,99583.22
2023-04-27T08:42:56.222Z,99580.44
2023-04-27T08:45:25.172Z,99579.31
2023-04-27T08:47:55.755Z,99580.97
2023-04-27T08:50:24.652Z,99581.63
2023-04-27T08:52:53.479Z,99583.00
2023-04-27T08:55:22.227Z,99581.53
2023-04-27T08:57:58.299Z,99585.00
2023-04-27T09:00:39.689Z,99588.78
2023-04-27T09:03:10.468Z,99583.91
2023-04-27T09:06:00.580Z,99577.34
2023-04-27T09:08:44.548Z,99580.50
2023-04-27T09:11:15.029Z,99580.53
2023-04-27T09:13:45.622Z,99573.50
2023-04-27T09:16:15.346Z,99579.72
2023-04-27T09:18:45.493Z,99573.97
2023-04-27T09:21:24.728Z,99573.16
2023-04-27T09:23:53.765Z,99579.56
2023-04-27T09:26:24.226Z,99581.88
2023-04-27T09:28:57.514Z,99575.63
2023-04-27T09:31:33.139Z,99571.19
2023-04-27T09:34:04.004Z,99578.59
2023-04-27T09:36:33.447Z,99569.84
2023-04-27T09:39:06.111Z,99569.66
2023-04-27T09:41:35.300Z,99566.84
2023-04-27T09:44:05.929Z,99558.44
2023-04-27T09:46:35.655Z,99564.50
2023-04-27T09:49:06.954Z,99558.16
2023-04-27T09:51:36.028Z,99551.47
2023-04-27T09:54:06.026Z,99551.88
2023-04-27T09:56:53.116Z,99545.81
2023-04-27T09:59:42.948Z,99546.94
2023-04-27T10:02:24.692Z,99539.69
2023-04-27T10:05:26.898Z,99535.53
2023-04-27T10:07:55.733Z,99536.00
2023-04-27T10:10:24.083Z,99528.69
2023-04-27T10:13:01.825Z,99526.09
2023-04-27T10:15:32.046Z,99527.22
2023-04-27T10:18:07.454Z,99527.78
2023-04-27T10:20:38.722Z,99516.31
2023-04-27T10:23:07.300Z,99524.59
2023-04-27T10:25:41.371Z,99513.59
2023-04-27T10:28:16.378Z,99511.91
2023-04-27T10:30:49.119Z,99505.94
2023-04-27T10:33:20.306Z,99500.34
2023-04-27T10:35:59.049Z,99504.47
2023-04-27T10:38:33.159Z,99501.72
2023-04-27T10:41:05.501Z,99508.63
2023-04-27T10:43:37.440Z,99501.72
2023-04-27T10:46:10.864Z,99494.22
2023-04-27T10:48:40.875Z,99493.31
2023-04-27T10:51:11.222Z,99493.66
2023-04-27T10:53:39.816Z,99493.28
2023-04-27T10:56:08.848Z,99497.41
2023-04-27T11:01:10.497Z,99492.94
2023-04-27T11:03:39.088Z,99496.47
2023-04-27T11:06:08.690Z,99495.97
2023-04-27T11:08:45.658Z,99489.91
2023-04-27T11:11:16.922Z,99491.28
2023-04-27T11:13:46.474Z,99497.13
2023-04-27T11:16:14.967Z,99489.00
2023-04-27T11:18:43.947Z,99486.28
2023-04-27T11:21:15.073Z,99485.97
2023-04-27T11:23:45.238Z,99487.72
2023-04-27T11:26:16.184Z,99481.16
2023-04-27T11:28:45.906Z,99485.13
2023-04-27T11:31:14.538Z,99476.06
2023-04-27T11:33:49.940Z,99474.72
2023-04-27T11:36:19.197Z,99468.16
2023-04-27T11:38:49.111Z,99479.41
2023-04-27T11:41:17.758Z,99478.63
2023-04-27T11:43:49.509Z,99484.22
2023-04-27T11:46:22.420Z,99476.50
2023-04-27T11:48:51.066Z,99479.19
2023-04-27T11:51:19.474Z,99468.84
2023-04-27T11:53:51.255Z,99464.69
2023-04-27T11:56:19.580Z,99470.69
2023-04-27T11:58:47.986Z,99464.56
2023-04-27T12:01:22.020Z,99459.94
2023-04-27T12:04:02.251Z,99449.44
2023-04-27T12:06:33.148Z,99453.81
2023-04-27T12:09:04.208Z,99445.44
2023-04-27T12:11:32.823Z,99443.84
2023-04-27T12:14:01.228Z,99442.09
2023-04-27T12:16:29.772Z,99446.00
2023-04-27T12:18:58.179Z,99448.38
2023-04-27T12:21:26.874Z,99441.91
2023-04-27T12:23:55.272Z,99440.84
2023-04-27T12:26:25.631Z,99444.13
2023-04-27T12:28:54.078Z,99441.38
2023-04-27T12:31:26.863Z,99438.19
2023-04-27T12:33:56.194Z,99434.03
2023-04-27T12:36:24.659Z,99437.84
2023-04-27T12:38:53.488Z,99429.97
2023-04-27T12:41:23.409Z,99429.59
2023-04-27T12:43:53.291Z,99418.63
2023-04-27T12:46:21.822Z,99424.78
2023-04-27T12:48:50.284Z,99437.72
2023-04-27T12:51:19.896Z,99434.19
2023-04-27T12:53:48.284Z,99426.88
2023-04-27T12:56:16.851Z,99426.41
2023-04-27T12:58:45.677Z,99423.50
2023-04-27T13:01:15.790Z,99421.72
2023-04-27T13:03:44.770Z,99420.41
2023-04-27T13:06:13.315Z,99419.16
2023-04-27T13:08:42.827Z,99414.56
2023-04-27T13:11:11.586Z,99413.28
2023-04-27T13:13:40.063Z,99416.16
2023-04-27T13:16:08.954Z,99412.44
2023-04-27T13:18:38.741Z,99416.34
2023-04-27T13:21:07.478Z,99404.09
2023-04-27T13:23:36.071Z,99416.09
2023-04-27T13:26:04.687Z,99417.72
2023-04-27T13:28:33.074Z,99413.84
2023-04-27T13:31:01.730Z,99422.59
2023-04-27T13:33:30.369Z,99418.25
2023-04-27T13:36:02.263Z,99418.78
2023-04-27T13:38:30.922Z,99418.06
2023-04-27T13:40:59.376Z,99420.41
2023-04-27T13:43:28.065Z,99424.34
2023-04-27T13:45:57.776Z,99420.88
2023-04-27T13:48:27.556Z,99418.25
2023-04-27T13:50:56.392Z,99404.09
2023-04-27T13:53:26.964Z,99406.91
2023-04-27T13:55:56.664Z,99411.47
2023-04-27T13:58:26.404Z,99419.44
2023-04-27T14:00:55.127Z,99416.72
2023-04-27T14:03:23.739Z,99413.06
2023-04-27T14:05:52.420Z,99411.09
2023-04-27T14:08:21.189Z,99416.84
2023-04-27T14:10:51.284Z,99409.06
2023-04-27T14:13:20.506Z,99407.69
2023-04-27T14:15:48.971Z,99408.84
2023-04-27T14:18:17.383Z,99408.06
2023-04-27T14:20:46.525Z,99413.59
2023-04-27T14:23:14.914Z,99409.19
2023-04-27T14:25:43.279Z,99424.41
2023-04-27T14:28:14.706Z,99419.47
2023-04-27T14:30:43.162Z,99417.63
2023-04-27T14:33:11.520Z,99427.50
2023-04-27T14:35:39.993Z,99425.41
2023-04-27T14:38:08.704Z,99417.97
2023-04-27T14:40:37.127Z,99413.75
2023-04-27T14:43:05.600Z,99405.81
2023-04-27T14:45:47.712Z,99412.09
2023-04-27T14:48:16.620Z,99414.06
2023-04-27T14:50:45.122Z,99417.59
2023-04-27T14:53:13.517Z,99420.34
2023-04-27T14:55:44.222Z,99431.78
2023-04-27T14:58:12.700Z,99435.28
2023-04-27T15:00:42.568Z,99440.38
2023-04-27T15:03:12.077Z,99443.50
2023-04-27T15:05:40.867Z,99440.63
2023-04-27T15:08:09.186Z,99451.56
2023-04-27T15:10:37.532Z,99455.03
2023-04-27T15:13:05.839Z,99448.50
2023-04-27T15:15:34.207Z,99451.22
2023-04-27T15:18:04.122Z,99456.88
2023-04-27T15:20:32.641Z,99460.72
2023-04-27T15:23:01.177Z,99454.59
2023-04-27T15:25:29.714Z,99461.63
2023-04-27T15:27:58.491Z,99471.19
2023-04-27T15:30:27.128Z,99461.78
2023-04-27T15:32:55.909Z,99459.34
2023-04-27T15:35:25.896Z,99457.03
2023-04-27T15:37:54.240Z,99456.13
2023-04-27T15:40:22.910Z,99460.06
2023-04-27T15:42:51.277Z,99450.34
2023-04-27T15:45:20.015Z,99461.84
2023-04-27T15:47:48.421Z,99463.72
2023-04-27T15:50:18.100Z,99461.13
2023-04-27T15:52:47.897Z,99457.41
2023-04-27T15:55:16.665Z,99454.88
2023-04-27T15:57:45.088Z,99451.38
2023-04-27T16:00:16.749Z,99450.50
2023-04-27T16:02:45.266Z,99455.00
2023-04-27T16:05:13.739Z,99444.88
2023-04-27T16:07:44.304Z,99445.56
2023-04-27T16:10:14.330Z,99463.50
2023-04-27T16:12:43.093Z,99453.03
2023-04-27T16:15:12.397Z,99463.56
2023-04-27T16:17:41.035Z,99455.03
2023-04-27T16:20:10.262Z,99458.97
2023-04-27T16:22:39.048Z,99443.88
2023-04-27T16:25:11.209Z,99446.34
2023-04-27T16:27:41.334Z,99454.75
2023-04-27T16:30:10.849Z,99457.19
2023-04-27T16:32:39.604Z,99452.09
2023-04-27T16:35:09.502Z,99460.94
2023-04-27T16:37:38.339Z,99461.78
2023-04-27T16:40:08.782Z,99457.00
2023-04-27T16:42:37.142Z,99445.84
2023-04-27T16:45:10.689Z,99458.91
2023-04-27T16:47:39.730Z,99465.81
2023-04-27T16:50:08.880Z,99458.22
2023-04-27T16:52:37.310Z,99452.31
2023-04-27T16:55:07.544Z,99452.78
2023-04-27T16:57:35.958Z,99461.28
2023-04-27T17:00:06.212Z,99466.50
2023-04-27T17:02:36.090Z,99455.31
2023-04-27T17:05:04.774Z,99459.72
2023-04-27T17:07:33.607Z,99460.50
2023-04-27T17:10:02.009Z,99454.56
2023-04-27T17:12:30.327Z,99463.38
2023-04-27T17:14:58.734Z,99464.63
2023-04-27T17:17:27.186Z,99465.91
2023-04-27T17:19:57.152Z,99473.56
2023-04-27T17:22:25.848Z,99472.56
2023-04-27T17:24:54.278Z,99476.94
2023-04-27T17:27:23.480Z,99476.25
2023-04-27T17:29:57.693Z,99472.59
2023-04-27T17:32:26.529Z,99481.91
2023-04-27T17:34:57.568Z,99479.53
2023-04-27T17:37:26.795Z,99487.19
2023-04-27T17:39:55.209Z,99489.25
2023-04-27T17:42:23.649Z,99496.09
2023-04-27T17:44:52.196Z,99493.72
2023-04-27T17:47:22.362Z,99487.75
2023-04-27T17:49:50.776Z,99493.75
2023-04-27T17:52:20.993Z,99501.19
2023-04-27T17:54:49.616Z,99490.47
2023-04-27T17:57:17.930Z,99500.69
2023-04-27T17:59:46.706Z,99504.72
2023-04-27T18:02:15.577Z,99507.72
2023-04-27T18:04:44.369Z,99515.34
2023-04-27T18:07:14.900Z,99521.00
2023-04-27T18:09:45.218Z,99523.88
2023-04-27T18:12:13.815Z,99525.97
2023-04-27T18:14:42.207Z,99529.94
2023-04-27T18:17:11.029Z,99531.97
2023-04-27T18:19:41.000Z,99529.59
2023-04-27T18:22:10.224Z,99532.47
2023-04-27T18:24:38.667Z,99528.97
2023-04-27T18:27:09.869Z,99525.16
2023-04-27T18:29:39.598Z,99539.13
2023-04-27T18:32:08.338Z,99533.66
2023-04-27T18:34:37.376Z,99534.56
2023-04-27T18:37:06.493Z,99549.38
2023-04-27T18:39:34.895Z,99542.78
2023-04-27T18:42:05.900Z,99549.25
2023-04-27T18:44:36.428Z,99554.38
2023-04-27T18:47:06.270Z,99559.16
2023-04-27T18:49:34.608Z,99562.31
2023-04-27T18:52:03.949Z,99558.50
2023-04-27T18:54:33.700Z,99566.09
2023-04-27T18:57:06.724Z,99560.31
2023-04-27T18:59:38.326Z,99564.00
2023-04-27T19:02:08.862Z,99572.06
2023-04-27T19:04:41.112Z,99565.78
2023-04-27T19:07:14.431Z,99570.25
2023-04-27T19:09:43.594Z,99568.94
2023-04-27T19:12:12.917Z,99573.41
2023-04-27T19:14:43.277Z,99572.34
2023-04-27T19:17:12.835Z,99579.84
2023-04-27T19:19:41.769Z,99574.09
2023-04-27T19:22:11.389Z,99580.75
2023-04-27T19:24:40.088Z,99581.34
2023-04-27T19:27:10.724Z,99578.88
2023-04-27T19:29:53.867Z,99579.25
2023-04-27T19:32:25.717Z,99582.00
2023-04-27T19:34:55.156Z,99583.72
2023-04-27T19:37:23.837Z,99583.50
2023-04-27T19:39:52.568Z,99585.72
2023-04-27T19:42:21.628Z,99579.66
2023-04-27T19:44:51.536Z,99579.13
2023-04-27T19:47:20.226Z,99585.00
2023-04-27T19:49:48.783Z,99591.66
2023-04-27T19:52:18.286Z,99593.59
2023-04-27T19:54:52.288Z,99592.22
2023-04-27T19:57:21.263Z,99599.19
2023-04-27T19:59:51.723Z,99590.97
2023-04-27T20:02:20.314Z,99593.47
2023-04-27T20:04:49.018Z,99595.19
2023-04-27T20:07:17.683Z,99585.84
2023-04-27T20:09:46.103Z,99599.16
2023-04-27T20:12:29.244Z,99598.38
2023-04-27T20:15:04.803Z,99599.56
2023-04-27T20:17:33.241Z,99594.31
2023-04-27T20:20:02.156Z,99590.13
2023-04-27T20:22:30.573Z,99597.09
2023-04-27T20:25:00.264Z,99605.69
2023-04-27T20:27:28.680Z,99601.88
2023-04-27T20:29:56.993Z,99604.69
2023-04-27T20:32:26.860Z,99601.69
2023-04-27T20:34:55.317Z,99607.50
2023-04-27T20:37:24.880Z,99602.00
2023-04-27T20:39:53.449Z,99598.47
2023-04-27T20:42:21.953Z,99605.16
2023-04-27T20:44:50.522Z,99602.75
2023-04-27T20:47:18.886Z,99603.91
2023-04-27T20:49:48.677Z,99614.50
2023-04-27T20:52:17.204Z,99610.66
2023-04-27T20:54:45.722Z,99613.16
2023-04-27T20:57:14.526Z,99610.16
2023-04-27T20:59:42.971Z,99624.88
2023-04-27T21:02:11.533Z,99614.34
2023-04-27T21:04:40.421Z,99618.81
2023-04-27T21:07:10.366Z,99616.63
2023-04-27T21:09:39.122Z,99623.84
2023-04-27T21:12:08.677Z,99624.41
2023-04-27T21:14:37.525Z,99619.75
2023-04-27T21:17:06.105Z,99616.75
2023-04-27T21:19:34.612Z,99623.94
2023-04-27T21:22:03.064Z,99626.13
2023-04-27T21:24:32.905Z,99618.69
2023-04-27T21:27:01.843Z,99623.16
2023-04-27T21:29:30.324Z,99620.41
2023-04-27T21:31:58.739Z,99619.03
2023-04-27T21:34:27.095Z,99617.97
2023-04-27T21:36:55.632Z,99618.81
2023-04-27T21:39:24.030Z,99618.59
2023-04-27T21:41:53.848Z,99627.44
2023-04-27T21:44:22.297Z,99624.69
2023-04-27T21:46:51.469Z,99622.78
2023-04-27T21:49:20.097Z,99626.09
2023-04-27T21:51:48.524Z,99627.50
2023-04-27T21:54:17.133Z,99635.53
2023-04-27T21:56:45.844Z,99633.88
2023-04-27T21:59:15.549Z,99636.09
2023-04-27T22:01:43.966Z,99639.97
2023-04-27T22:04:12.573Z,99641.91
2023-04-27T22:06:41.098Z,99644.97
2023-04-27T22:09:09.497Z,99638.88
2023-04-27T22:11:37.903Z,99635.31
2023-04-27T22:14:06.412Z,99639.69
2023-04-27T22:16:36.514Z,99649.13
2023-04-27T22:19:04.983Z,99648.00
2023-04-27T22:21:33.327Z,99643.28
2023-04-27T22:24:01.668Z,99646.06
2023-04-27T22:26:29.987Z,99630.31
2023-04-27T22:28:58.782Z,99644.97
2023-04-27T22:31:27.233Z,99642.75
2023-04-27T22:33:57.100Z,99641.63
2023-04-27T22:36:25.875Z,99643.28
2023-04-27T22:38:54.253Z,99636.91
2023-04-27T22:41:22.583Z,99630.56
2023-04-27T22:43:51.072Z,99620.34
2023-04-27T22:46:19.407Z,99625.03
2023-04-27T22:48:47.727Z,99617.88
2023-04-27T22:51:17.682Z,99617.03
2023-04-27T22:53:46.201Z,99621.19
2023-04-27T22:56:14.530Z,99617.06
2023-04-27T22:58:42.861Z,99618.75
2023-04-27T23:01:11.248Z,99620.41
2023-04-27T23:03:40.097Z,99617.13
2023-04-27T23:06:14.252Z,99622.06
2023-04-27T23:08:47.132Z,99613.81
2023-04-27T23:11:18.891Z,99605.25
2023-04-27T23:13:50.677Z,99605.81
2023-04-27T23:16:19.001Z,99601.13
2023-04-27T23:18:47.363Z,99597.81
2023-04-27T23:21:15.733Z,99594.81
2023-04-27T23:23:45.583Z,99599.25
2023-04-27T23:26:15.019Z,99600.09
2023-04-27T23:28:44.362Z,99603.13
2023-04-27T23:31:12.779Z,99600.31
2023-04-27T23:33:41.179Z,99608.06
2023-04-27T23:36:09.878Z,99613.34
2023-04-27T23:38:38.178Z,99610.81
2023-04-27T23:41:07.981Z,99607.81
2023-04-27T23:43:36.348Z,99598.44
2023-04-27T23:46:05.826Z,99597.88
2023-04-27T23:48:34.240Z,99606.44
2023-04-27T23:51:04.497Z,99601.47
2023-04-27T23:53:32.995Z,99595.41
2023-04-27T23:56:01.341Z,99603.97
2023-04-27T23:58:31.100Z,99605.63
